This is the latest recevied weather packets stored in our database for station/object KC5AV. If no packets are shown the sender has not sent any weather packets the latest 1 day(s).
| Time | Temp. | Humidity | Pressure | Rain* | Wind** | Luminosity | Snow |
|---|---|---|---|---|---|---|---|
| 1777998219 | 23.89° C | 82% | 1008.8 hPa | 0 mm | 0.45 m/s, 128° | 251 W/m² | - |
| 1777997917 | 23.33° C | 83% | 1008.4 hPa | 0 mm | 0.45 m/s, 26° | 331 W/m² | - |
| 1777997614 | 23.33° C | 83% | 1008.7 hPa | 0 mm | 0.89 m/s, 166° | 174 W/m² | - |
| 1777997311 | 22.78° C | 84% | 1008.7 hPa | 0 mm | 0.89 m/s, 287° | 164 W/m² | - |
| 1777997009 | 22.78° C | 83% | 1008.8 hPa | 0 mm | 0 m/s | 136 W/m² | - |
| 1777996705 | 22.78° C | 85% | 1008.6 hPa | 0 mm | 0.45 m/s, 237° | 183 W/m² | - |
| 1777996401 | 22.78° C | 85% | 1008.8 hPa | 0 mm | 0 m/s | 150 W/m² | - |
| 1777996098 | 22.78° C | 84% | 1008.9 hPa | 0 mm | 1.34 m/s, 138° | 113 W/m² | - |
| 1777995794 | 22.78° C | 84% | 1008.9 hPa | 0 mm | 0.45 m/s, 134° | 98 W/m² | - |
| 1777995490 | 22.78° C | 84% | 1008.8 hPa | 0 mm | 1.34 m/s, 139° | 104 W/m² | - |
| 1777995188 | 22.78° C | 84% | 1008.7 hPa | 0 mm | 0.89 m/s, 80° | 104 W/m² | - |
| 1777994885 | 22.78° C | 84% | 1008.5 hPa | 0 mm | 0.89 m/s, 280° | 96 W/m² | - |
| 1777994582 | 22.78° C | 84% | 1008.8 hPa | 0 mm | 0.89 m/s, 158° | 163 W/m² | - |
| 1777994282 | 22.78° C | 84% | 1008.8 hPa | 0 mm | 0.89 m/s, 245° | 93 W/m² | - |
| 1777993979 | 22.78° C | 84% | 1008.9 hPa | 0 mm | 2.24 m/s, 130° | 84 W/m² | - |
| 1777993676 | 22.78° C | 83% | 1008.5 hPa | 0 mm | 0.45 m/s, 116° | 105 W/m² | - |
| 1777993373 | 22.78° C | 84% | 1008.7 hPa | 0 mm | 0 m/s | 162 W/m² | - |
| 1777993073 | 22.22° C | 85% | 1008.8 hPa | 0 mm | 1.34 m/s, 123° | 163 W/m² | - |
| 1777992772 | 22.22° C | 85% | 1008.7 hPa | 0 mm | 1.34 m/s, 258° | 100 W/m² | - |
| 1777992469 | 22.22° C | 85% | 1008.7 hPa | 0 mm | 0.89 m/s, 204° | 79 W/m² | - |
| 1777992167 | 22.22° C | 85% | 1008.7 hPa | 0 mm | 0.45 m/s, 204° | 73 W/m² | - |
| 1777991864 | 22.22° C | 85% | 1008.3 hPa | 0 mm | 0.45 m/s, 172° | 64 W/m² | - |
| 1777991561 | 22.22° C | 85% | 1008.5 hPa | 0 mm | 0.89 m/s, 247° | 70 W/m² | - |
| 1777991258 | 22.22° C | 85% | 1008.6 hPa | 0 mm | 0.45 m/s, 341° | 68 W/m² | - |
| 1777990955 | 22.22° C | 85% | 1008.6 hPa | 0 mm | 0 m/s | 78 W/m² | - |
* Rain latest hour (hover to see other rain measurements)
** Current wind speed in m/s (hover to see current wind gust speed)